sensor_id;sensor_type;location;lat;lon;timestamp;P1;durP1;ratioP1;P2;durP2;ratioP2
59571;SDS011;59406;45.602;11.904;2022-07-10T00:00:38;5.95;;;3.45;;
59571;SDS011;59406;45.602;11.904;2022-07-10T00:03:04;7.90;;;2.88;;
59571;SDS011;59406;45.602;11.904;2022-07-10T00:05:31;6.47;;;2.53;;
59571;SDS011;59406;45.602;11.904;2022-07-10T00:07:59;6.88;;;3.03;;
59571;SDS011;59406;45.602;11.904;2022-07-10T00:10:26;6.57;;;2.60;;
59571;SDS011;59406;45.602;11.904;2022-07-10T00:12:54;7.35;;;3.90;;
59571;SDS011;59406;45.602;11.904;2022-07-10T00:15:20;6.40;;;4.03;;
59571;SDS011;59406;45.602;11.904;2022-07-10T00:17:46;8.38;;;3.60;;
59571;SDS011;59406;45.602;11.904;2022-07-10T00:20:14;6.22;;;3.65;;
59571;SDS011;59406;45.602;11.904;2022-07-10T00:22:41;8.90;;;4.23;;
59571;SDS011;59406;45.602;11.904;2022-07-10T00:25:09;6.55;;;3.90;;
59571;SDS011;59406;45.602;11.904;2022-07-10T00:27:37;6.90;;;3.50;;
59571;SDS011;59406;45.602;11.904;2022-07-10T00:30:04;6.80;;;3.63;;
59571;SDS011;59406;45.602;11.904;2022-07-10T00:32:31;6.82;;;3.13;;
59571;SDS011;59406;45.602;11.904;2022-07-10T00:34:56;7.50;;;3.80;;
59571;SDS011;59406;45.602;11.904;2022-07-10T00:37:23;7.22;;;3.42;;
59571;SDS011;59406;45.602;11.904;2022-07-10T00:39:48;6.65;;;3.20;;
59571;SDS011;59406;45.602;11.904;2022-07-10T00:42:15;5.85;;;2.97;;
59571;SDS011;59406;45.602;11.904;2022-07-10T00:44:42;9.07;;;3.50;;
59571;SDS011;59406;45.602;11.904;2022-07-10T00:47:09;7.10;;;4.15;;
59571;SDS011;59406;45.602;11.904;2022-07-10T00:49:37;5.97;;;3.08;;
59571;SDS011;59406;45.602;11.904;2022-07-10T00:52:06;7.35;;;3.78;;
59571;SDS011;59406;45.602;11.904;2022-07-10T00:54:36;8.82;;;3.90;;
59571;SDS011;59406;45.602;11.904;2022-07-10T00:57:03;8.07;;;3.00;;
59571;SDS011;59406;45.602;11.904;2022-07-10T00:59:33;7.50;;;3.83;;
59571;SDS011;59406;45.602;11.904;2022-07-10T01:02:01;5.70;;;3.30;;
59571;SDS011;59406;45.602;11.904;2022-07-10T01:04:29;7.15;;;3.78;;
59571;SDS011;59406;45.602;11.904;2022-07-10T01:06:56;7.13;;;3.63;;
59571;SDS011;59406;45.602;11.904;2022-07-10T01:09:22;8.23;;;4.80;;
59571;SDS011;59406;45.602;11.904;2022-07-10T01:11:48;7.20;;;3.40;;
59571;SDS011;59406;45.602;11.904;2022-07-10T01:14:15;8.45;;;4.43;;
59571;SDS011;59406;45.602;11.904;2022-07-10T01:16:41;7.30;;;2.88;;
59571;SDS011;59406;45.602;11.904;2022-07-10T01:19:08;6.18;;;3.35;;
59571;SDS011;59406;45.602;11.904;2022-07-10T01:21:35;6.33;;;3.53;;
59571;SDS011;59406;45.602;11.904;2022-07-10T01:24:06;9.10;;;3.58;;
59571;SDS011;59406;45.602;11.904;2022-07-10T01:26:34;7.22;;;4.13;;
59571;SDS011;59406;45.602;11.904;2022-07-10T01:29:05;7.40;;;3.25;;
59571;SDS011;59406;45.602;11.904;2022-07-10T01:31:32;8.98;;;3.30;;
59571;SDS011;59406;45.602;11.904;2022-07-10T01:33:59;7.13;;;3.10;;
59571;SDS011;59406;45.602;11.904;2022-07-10T01:36:27;6.35;;;2.78;;
59571;SDS011;59406;45.602;11.904;2022-07-10T01:38:58;5.40;;;2.38;;
59571;SDS011;59406;45.602;11.904;2022-07-10T01:41:25;6.30;;;3.47;;
59571;SDS011;59406;45.602;11.904;2022-07-10T01:43:51;5.38;;;1.90;;
59571;SDS011;59406;45.602;11.904;2022-07-10T01:46:18;8.87;;;3.53;;
59571;SDS011;59406;45.602;11.904;2022-07-10T01:48:45;5.85;;;3.10;;
59571;SDS011;59406;45.602;11.904;2022-07-10T01:51:11;7.05;;;3.33;;
59571;SDS011;59406;45.602;11.904;2022-07-10T01:53:38;7.10;;;3.35;;
59571;SDS011;59406;45.602;11.904;2022-07-10T01:56:06;6.32;;;3.13;;
59571;SDS011;59406;45.602;11.904;2022-07-10T01:58:33;6.60;;;3.00;;
59571;SDS011;59406;45.602;11.904;2022-07-10T02:01:00;7.53;;;2.83;;
59571;SDS011;59406;45.602;11.904;2022-07-10T02:03:27;6.45;;;2.85;;
59571;SDS011;59406;45.602;11.904;2022-07-10T02:06:12;5.30;;;2.35;;
59571;SDS011;59406;45.602;11.904;2022-07-10T02:08:38;7.43;;;3.35;;
59571;SDS011;59406;45.602;11.904;2022-07-10T02:11:04;6.50;;;2.70;;
59571;SDS011;59406;45.602;11.904;2022-07-10T02:13:30;5.57;;;2.55;;
59571;SDS011;59406;45.602;11.904;2022-07-10T02:15:57;4.63;;;2.30;;
59571;SDS011;59406;45.602;11.904;2022-07-10T02:18:24;7.85;;;2.97;;
59571;SDS011;59406;45.602;11.904;2022-07-10T02:20:51;6.10;;;2.33;;
59571;SDS011;59406;45.602;11.904;2022-07-10T02:23:17;6.05;;;2.63;;
59571;SDS011;59406;45.602;11.904;2022-07-10T02:25:44;6.72;;;3.60;;
59571;SDS011;59406;45.602;11.904;2022-07-10T02:28:10;6.05;;;3.00;;
59571;SDS011;59406;45.602;11.904;2022-07-10T02:30:37;5.93;;;2.70;;
59571;SDS011;59406;45.602;11.904;2022-07-10T02:33:02;4.73;;;1.70;;
59571;SDS011;59406;45.602;11.904;2022-07-10T02:35:28;6.22;;;2.15;;
59571;SDS011;59406;45.602;11.904;2022-07-10T02:37:55;6.10;;;3.00;;
59571;SDS011;59406;45.602;11.904;2022-07-10T02:40:20;7.60;;;3.08;;
59571;SDS011;59406;45.602;11.904;2022-07-10T02:42:47;5.87;;;2.77;;
59571;SDS011;59406;45.602;11.904;2022-07-10T02:45:12;5.97;;;2.45;;
59571;SDS011;59406;45.602;11.904;2022-07-10T02:47:38;6.32;;;2.25;;
59571;SDS011;59406;45.602;11.904;2022-07-10T02:50:04;5.93;;;2.80;;
59571;SDS011;59406;45.602;11.904;2022-07-10T02:52:31;4.68;;;2.13;;
59571;SDS011;59406;45.602;11.904;2022-07-10T02:54:57;4.85;;;2.30;;
59571;SDS011;59406;45.602;11.904;2022-07-10T02:57:23;6.05;;;2.60;;
59571;SDS011;59406;45.602;11.904;2022-07-10T02:59:49;4.95;;;2.20;;
59571;SDS011;59406;45.602;11.904;2022-07-10T03:02:16;6.03;;;3.00;;
59571;SDS011;59406;45.602;11.904;2022-07-10T03:04:42;5.43;;;2.75;;
59571;SDS011;59406;45.602;11.904;2022-07-10T03:07:07;5.30;;;2.78;;
59571;SDS011;59406;45.602;11.904;2022-07-10T03:09:34;5.93;;;3.20;;
59571;SDS011;59406;45.602;11.904;2022-07-10T03:12:00;6.65;;;2.85;;
59571;SDS011;59406;45.602;11.904;2022-07-10T03:14:26;5.93;;;2.55;;
59571;SDS011;59406;45.602;11.904;2022-07-10T03:16:51;6.55;;;2.88;;
59571;SDS011;59406;45.602;11.904;2022-07-10T03:19:17;6.07;;;2.60;;
59571;SDS011;59406;45.602;11.904;2022-07-10T03:21:43;5.38;;;2.88;;
59571;SDS011;59406;45.602;11.904;2022-07-10T03:24:11;5.55;;;2.50;;
59571;SDS011;59406;45.602;11.904;2022-07-10T03:26:38;6.03;;;2.78;;
59571;SDS011;59406;45.602;11.904;2022-07-10T03:29:04;7.77;;;3.23;;
59571;SDS011;59406;45.602;11.904;2022-07-10T03:31:30;5.55;;;2.60;;
59571;SDS011;59406;45.602;11.904;2022-07-10T03:33:56;5.90;;;2.50;;
59571;SDS011;59406;45.602;11.904;2022-07-10T03:36:22;4.90;;;2.33;;
59571;SDS011;59406;45.602;11.904;2022-07-10T03:38:48;5.22;;;2.80;;
59571;SDS011;59406;45.602;11.904;2022-07-10T03:41:14;5.47;;;2.83;;
59571;SDS011;59406;45.602;11.904;2022-07-10T03:43:40;6.57;;;3.10;;
59571;SDS011;59406;45.602;11.904;2022-07-10T03:46:06;5.33;;;2.23;;
59571;SDS011;59406;45.602;11.904;2022-07-10T03:48:32;6.95;;;2.83;;
59571;SDS011;59406;45.602;11.904;2022-07-10T03:50:59;8.15;;;3.28;;
59571;SDS011;59406;45.602;11.904;2022-07-10T03:53:25;5.63;;;2.72;;
59571;SDS011;59406;45.602;11.904;2022-07-10T03:55:52;7.05;;;3.10;;
59571;SDS011;59406;45.602;11.904;2022-07-10T03:58:19;6.83;;;4.07;;
59571;SDS011;59406;45.602;11.904;2022-07-10T04:00:45;8.90;;;5.10;;
59571;SDS011;59406;45.602;11.904;2022-07-10T04:03:12;8.48;;;4.75;;
59571;SDS011;59406;45.602;11.904;2022-07-10T04:05:38;6.93;;;3.38;;
59571;SDS011;59406;45.602;11.904;2022-07-10T04:08:05;7.35;;;3.40;;
59571;SDS011;59406;45.602;11.904;2022-07-10T04:10:31;6.97;;;4.00;;
59571;SDS011;59406;45.602;11.904;2022-07-10T04:12:58;7.35;;;3.88;;
59571;SDS011;59406;45.602;11.904;2022-07-10T04:15:24;8.00;;;5.03;;
59571;SDS011;59406;45.602;11.904;2022-07-10T04:17:50;7.25;;;4.20;;
59571;SDS011;59406;45.602;11.904;2022-07-10T04:20:16;8.65;;;4.90;;
59571;SDS011;59406;45.602;11.904;2022-07-10T04:22:44;6.17;;;2.90;;
59571;SDS011;59406;45.602;11.904;2022-07-10T04:25:10;7.85;;;4.53;;
59571;SDS011;59406;45.602;11.904;2022-07-10T04:27:37;7.05;;;4.22;;
59571;SDS011;59406;45.602;11.904;2022-07-10T04:30:04;10.45;;;4.95;;
59571;SDS011;59406;45.602;11.904;2022-07-10T04:32:31;7.32;;;3.72;;
59571;SDS011;59406;45.602;11.904;2022-07-10T04:34:58;8.73;;;4.73;;
59571;SDS011;59406;45.602;11.904;2022-07-10T04:37:26;7.30;;;3.67;;
59571;SDS011;59406;45.602;11.904;2022-07-10T04:39:54;11.45;;;5.78;;
59571;SDS011;59406;45.602;11.904;2022-07-10T04:42:20;9.55;;;6.10;;
59571;SDS011;59406;45.602;11.904;2022-07-10T04:44:46;11.60;;;5.17;;
59571;SDS011;59406;45.602;11.904;2022-07-10T04:47:12;9.15;;;5.22;;
59571;SDS011;59406;45.602;11.904;2022-07-10T04:49:37;8.80;;;5.43;;
59571;SDS011;59406;45.602;11.904;2022-07-10T04:52:03;11.13;;;4.90;;
59571;SDS011;59406;45.602;11.904;2022-07-10T04:54:30;8.15;;;4.28;;
59571;SDS011;59406;45.602;11.904;2022-07-10T04:56:57;7.80;;;4.70;;
59571;SDS011;59406;45.602;11.904;2022-07-10T04:59:23;8.10;;;4.27;;
59571;SDS011;59406;45.602;11.904;2022-07-10T05:01:49;8.05;;;4.53;;
59571;SDS011;59406;45.602;11.904;2022-07-10T05:04:15;9.88;;;6.40;;
59571;SDS011;59406;45.602;11.904;2022-07-10T05:06:41;10.07;;;6.22;;
59571;SDS011;59406;45.602;11.904;2022-07-10T05:09:07;11.33;;;6.50;;
59571;SDS011;59406;45.602;11.904;2022-07-10T05:11:32;10.60;;;6.40;;
59571;SDS011;59406;45.602;11.904;2022-07-10T05:13:58;11.50;;;6.97;;
59571;SDS011;59406;45.602;11.904;2022-07-10T05:16:25;12.57;;;6.18;;
59571;SDS011;59406;45.602;11.904;2022-07-10T05:18:50;8.43;;;5.47;;
59571;SDS011;59406;45.602;11.904;2022-07-10T05:21:16;10.20;;;6.10;;
59571;SDS011;59406;45.602;11.904;2022-07-10T05:23:42;10.50;;;5.38;;
59571;SDS011;59406;45.602;11.904;2022-07-10T05:26:09;10.75;;;6.10;;
59571;SDS011;59406;45.602;11.904;2022-07-10T05:28:34;13.80;;;6.70;;
59571;SDS011;59406;45.602;11.904;2022-07-10T05:31:01;8.85;;;5.63;;
59571;SDS011;59406;45.602;11.904;2022-07-10T05:33:27;10.50;;;6.13;;
59571;SDS011;59406;45.602;11.904;2022-07-10T05:35:54;10.52;;;6.03;;
59571;SDS011;59406;45.602;11.904;2022-07-10T05:38:20;10.32;;;5.78;;
59571;SDS011;59406;45.602;11.904;2022-07-10T05:40:46;10.17;;;5.97;;
59571;SDS011;59406;45.602;11.904;2022-07-10T05:43:12;8.73;;;5.50;;
59571;SDS011;59406;45.602;11.904;2022-07-10T05:45:38;9.48;;;6.25;;
59571;SDS011;59406;45.602;11.904;2022-07-10T05:48:04;10.48;;;5.60;;
59571;SDS011;59406;45.602;11.904;2022-07-10T05:50:30;9.00;;;6.00;;
59571;SDS011;59406;45.602;11.904;2022-07-10T05:52:56;8.90;;;6.38;;
59571;SDS011;59406;45.602;11.904;2022-07-10T05:55:22;8.02;;;5.05;;
59571;SDS011;59406;45.602;11.904;2022-07-10T05:57:49;9.68;;;5.75;;
59571;SDS011;59406;45.602;11.904;2022-07-10T06:00:15;10.02;;;5.40;;
59571;SDS011;59406;45.602;11.904;2022-07-10T06:02:41;10.43;;;5.80;;
59571;SDS011;59406;45.602;11.904;2022-07-10T06:05:08;9.48;;;5.82;;
59571;SDS011;59406;45.602;11.904;2022-07-10T06:07:34;9.50;;;5.70;;
59571;SDS011;59406;45.602;11.904;2022-07-10T06:10:01;10.38;;;5.70;;
59571;SDS011;59406;45.602;11.904;2022-07-10T06:12:29;6.80;;;4.70;;
59571;SDS011;59406;45.602;11.904;2022-07-10T06:14:55;8.88;;;5.25;;
59571;SDS011;59406;45.602;11.904;2022-07-10T06:17:21;9.45;;;4.95;;
59571;SDS011;59406;45.602;11.904;2022-07-10T06:19:46;9.90;;;5.38;;
59571;SDS011;59406;45.602;11.904;2022-07-10T06:22:12;7.85;;;5.57;;
59571;SDS011;59406;45.602;11.904;2022-07-10T06:24:59;6.50;;;4.60;;
59571;SDS011;59406;45.602;11.904;2022-07-10T06:27:28;9.10;;;5.68;;
59571;SDS011;59406;45.602;11.904;2022-07-10T06:29:54;7.38;;;4.82;;
59571;SDS011;59406;45.602;11.904;2022-07-10T06:32:21;8.35;;;4.25;;
59571;SDS011;59406;45.602;11.904;2022-07-10T06:34:50;7.65;;;4.63;;
59571;SDS011;59406;45.602;11.904;2022-07-10T06:37:17;7.53;;;3.27;;
59571;SDS011;59406;45.602;11.904;2022-07-10T06:39:44;8.25;;;3.80;;
59571;SDS011;59406;45.602;11.904;2022-07-10T06:42:12;6.30;;;3.00;;
59571;SDS011;59406;45.602;11.904;2022-07-10T06:44:38;9.52;;;4.32;;
59571;SDS011;59406;45.602;11.904;2022-07-10T06:47:04;7.60;;;2.80;;
59571;SDS011;59406;45.602;11.904;2022-07-10T06:49:52;4.57;;;2.13;;
59571;SDS011;59406;45.602;11.904;2022-07-10T06:52:19;5.50;;;2.75;;
59571;SDS011;59406;45.602;11.904;2022-07-10T06:54:46;6.35;;;3.30;;
59571;SDS011;59406;45.602;11.904;2022-07-10T06:57:12;5.60;;;2.78;;
59571;SDS011;59406;45.602;11.904;2022-07-10T06:59:39;4.63;;;2.20;;
59571;SDS011;59406;45.602;11.904;2022-07-10T07:02:05;5.97;;;2.23;;
59571;SDS011;59406;45.602;11.904;2022-07-10T07:04:31;6.18;;;2.20;;
59571;SDS011;59406;45.602;11.904;2022-07-10T07:06:57;6.85;;;2.25;;
59571;SDS011;59406;45.602;11.904;2022-07-10T07:09:23;4.95;;;1.60;;
59571;SDS011;59406;45.602;11.904;2022-07-10T07:11:49;4.93;;;1.90;;
59571;SDS011;59406;45.602;11.904;2022-07-10T07:14:15;5.28;;;1.45;;
59571;SDS011;59406;45.602;11.904;2022-07-10T07:16:41;4.40;;;1.60;;
59571;SDS011;59406;45.602;11.904;2022-07-10T07:19:08;6.00;;;1.60;;
59571;SDS011;59406;45.602;11.904;2022-07-10T07:21:43;4.70;;;2.03;;
59571;SDS011;59406;45.602;11.904;2022-07-10T07:24:27;5.18;;;1.17;;
59571;SDS011;59406;45.602;11.904;2022-07-10T07:26:54;4.13;;;1.38;;
59571;SDS011;59406;45.602;11.904;2022-07-10T07:29:20;3.28;;;1.23;;
59571;SDS011;59406;45.602;11.904;2022-07-10T07:31:46;4.30;;;1.45;;
59571;SDS011;59406;45.602;11.904;2022-07-10T07:34:12;5.33;;;1.30;;
59571;SDS011;59406;45.602;11.904;2022-07-10T07:36:38;4.30;;;1.25;;
59571;SDS011;59406;45.602;11.904;2022-07-10T07:39:04;4.45;;;1.10;;
59571;SDS011;59406;45.602;11.904;2022-07-10T07:41:30;5.03;;;1.20;;
59571;SDS011;59406;45.602;11.904;2022-07-10T07:43:56;3.30;;;1.00;;
59571;SDS011;59406;45.602;11.904;2022-07-10T07:46:22;4.00;;;1.02;;
59571;SDS011;59406;45.602;11.904;2022-07-10T07:48:49;3.85;;;0.82;;
59571;SDS011;59406;45.602;11.904;2022-07-10T07:51:15;5.78;;;1.30;;
59571;SDS011;59406;45.602;11.904;2022-07-10T07:53:41;3.33;;;0.90;;
59571;SDS011;59406;45.602;11.904;2022-07-10T07:56:07;5.07;;;1.02;;
59571;SDS011;59406;45.602;11.904;2022-07-10T07:58:33;4.75;;;1.08;;
59571;SDS011;59406;45.602;11.904;2022-07-10T08:01:02;3.20;;;0.63;;
59571;SDS011;59406;45.602;11.904;2022-07-10T08:03:28;3.67;;;1.08;;
59571;SDS011;59406;45.602;11.904;2022-07-10T08:05:54;2.67;;;0.70;;
59571;SDS011;59406;45.602;11.904;2022-07-10T08:08:20;3.65;;;1.05;;
59571;SDS011;59406;45.602;11.904;2022-07-10T08:10:46;3.63;;;0.97;;
59571;SDS011;59406;45.602;11.904;2022-07-10T08:13:12;3.80;;;0.90;;
59571;SDS011;59406;45.602;11.904;2022-07-10T08:15:38;4.47;;;1.25;;
59571;SDS011;59406;45.602;11.904;2022-07-10T08:18:04;4.18;;;1.40;;
59571;SDS011;59406;45.602;11.904;2022-07-10T08:20:32;5.10;;;1.27;;
59571;SDS011;59406;45.602;11.904;2022-07-10T08:22:58;3.50;;;0.97;;
59571;SDS011;59406;45.602;11.904;2022-07-10T08:25:24;3.83;;;1.20;;
59571;SDS011;59406;45.602;11.904;2022-07-10T08:27:50;3.67;;;0.90;;
59571;SDS011;59406;45.602;11.904;2022-07-10T08:30:16;4.22;;;1.10;;
59571;SDS011;59406;45.602;11.904;2022-07-10T08:32:43;5.43;;;1.20;;
59571;SDS011;59406;45.602;11.904;2022-07-10T08:35:09;3.67;;;0.90;;
59571;SDS011;59406;45.602;11.904;2022-07-10T08:37:37;2.92;;;1.10;;
59571;SDS011;59406;45.602;11.904;2022-07-10T08:40:04;4.22;;;1.00;;
59571;SDS011;59406;45.602;11.904;2022-07-10T08:42:34;3.95;;;1.30;;
59571;SDS011;59406;45.602;11.904;2022-07-10T08:45:00;5.63;;;1.20;;
59571;SDS011;59406;45.602;11.904;2022-07-10T08:47:26;4.30;;;1.30;;
59571;SDS011;59406;45.602;11.904;2022-07-10T08:49:56;3.80;;;1.50;;
59571;SDS011;59406;45.602;11.904;2022-07-10T08:52:25;4.82;;;1.20;;
59571;SDS011;59406;45.602;11.904;2022-07-10T08:54:52;2.83;;;0.90;;
59571;SDS011;59406;45.602;11.904;2022-07-10T08:57:18;2.85;;;0.70;;
59571;SDS011;59406;45.602;11.904;2022-07-10T08:59:45;2.57;;;0.80;;
59571;SDS011;59406;45.602;11.904;2022-07-10T09:02:11;4.43;;;0.90;;
59571;SDS011;59406;45.602;11.904;2022-07-10T09:04:37;3.83;;;1.08;;
59571;SDS011;59406;45.602;11.904;2022-07-10T09:07:03;3.75;;;0.90;;
59571;SDS011;59406;45.602;11.904;2022-07-10T09:09:30;3.22;;;1.08;;
59571;SDS011;59406;45.602;11.904;2022-07-10T09:11:57;2.90;;;0.70;;
59571;SDS011;59406;45.602;11.904;2022-07-10T09:14:25;4.35;;;0.93;;
59571;SDS011;59406;45.602;11.904;2022-07-10T09:16:54;5.15;;;0.95;;
59571;SDS011;59406;45.602;11.904;2022-07-10T09:21:48;4.47;;;1.20;;
59571;SDS011;59406;45.602;11.904;2022-07-10T09:24:15;3.50;;;1.00;;
59571;SDS011;59406;45.602;11.904;2022-07-10T09:29:25;6.72;;;1.65;;
59571;SDS011;59406;45.602;11.904;2022-07-10T09:31:54;3.53;;;1.30;;
59571;SDS011;59406;45.602;11.904;2022-07-10T09:37:42;3.72;;;1.55;;
59571;SDS011;59406;45.602;11.904;2022-07-10T09:40:11;3.33;;;1.10;;
59571;SDS011;59406;45.602;11.904;2022-07-10T09:42:38;3.22;;;1.15;;
59571;SDS011;59406;45.602;11.904;2022-07-10T09:47:53;3.47;;;1.30;;
59571;SDS011;59406;45.602;11.904;2022-07-10T09:50:27;3.20;;;1.05;;
59571;SDS011;59406;45.602;11.904;2022-07-10T09:52:58;2.92;;;1.27;;
59571;SDS011;59406;45.602;11.904;2022-07-10T09:55:26;3.83;;;1.17;;
59571;SDS011;59406;45.602;11.904;2022-07-10T09:58:00;3.17;;;1.30;;
59571;SDS011;59406;45.602;11.904;2022-07-10T10:00:32;10.57;;;1.80;;
59571;SDS011;59406;45.602;11.904;2022-07-10T10:03:00;6.07;;;1.50;;
59571;SDS011;59406;45.602;11.904;2022-07-10T10:08:06;3.85;;;1.40;;
59571;SDS011;59406;45.602;11.904;2022-07-10T10:10:49;3.47;;;1.60;;
59571;SDS011;59406;45.602;11.904;2022-07-10T10:13:18;3.95;;;1.35;;
59571;SDS011;59406;45.602;11.904;2022-07-10T10:15:49;4.40;;;1.73;;
59571;SDS011;59406;45.602;11.904;2022-07-10T10:18:17;4.43;;;1.50;;
59571;SDS011;59406;45.602;11.904;2022-07-10T10:20:45;3.10;;;1.80;;
59571;SDS011;59406;45.602;11.904;2022-07-10T10:23:16;3.40;;;1.70;;
59571;SDS011;59406;45.602;11.904;2022-07-10T10:25:44;4.03;;;1.60;;
59571;SDS011;59406;45.602;11.904;2022-07-10T10:28:10;3.60;;;1.52;;
59571;SDS011;59406;45.602;11.904;2022-07-10T10:30:39;3.28;;;1.60;;
59571;SDS011;59406;45.602;11.904;2022-07-10T10:36:05;4.37;;;1.50;;
59571;SDS011;59406;45.602;11.904;2022-07-10T10:41:24;4.07;;;1.45;;
59571;SDS011;59406;45.602;11.904;2022-07-10T10:46:34;5.63;;;1.70;;
59571;SDS011;59406;45.602;11.904;2022-07-10T10:49:04;3.10;;;1.47;;
59571;SDS011;59406;45.602;11.904;2022-07-10T10:54:30;3.38;;;1.50;;
59571;SDS011;59406;45.602;11.904;2022-07-10T10:57:17;3.80;;;1.40;;
59571;SDS011;59406;45.602;11.904;2022-07-10T10:59:53;2.88;;;1.35;;
59571;SDS011;59406;45.602;11.904;2022-07-10T11:02:29;3.27;;;1.50;;
59571;SDS011;59406;45.602;11.904;2022-07-10T11:13:00;4.32;;;1.70;;
59571;SDS011;59406;45.602;11.904;2022-07-10T11:15:31;4.63;;;1.93;;
59571;SDS011;59406;45.602;11.904;2022-07-10T11:20:31;3.15;;;1.92;;
59571;SDS011;59406;45.602;11.904;2022-07-10T11:23:06;3.88;;;2.30;;
59571;SDS011;59406;45.602;11.904;2022-07-10T11:25:50;3.42;;;2.47;;
59571;SDS011;59406;45.602;11.904;2022-07-10T11:28:41;3.87;;;2.20;;
59571;SDS011;59406;45.602;11.904;2022-07-10T11:31:16;3.95;;;2.20;;
59571;SDS011;59406;45.602;11.904;2022-07-10T11:33:44;3.85;;;2.40;;
59571;SDS011;59406;45.602;11.904;2022-07-10T11:36:12;4.10;;;2.45;;
59571;SDS011;59406;45.602;11.904;2022-07-10T11:38:43;3.92;;;2.40;;
59571;SDS011;59406;45.602;11.904;2022-07-10T11:41:16;4.03;;;2.40;;
59571;SDS011;59406;45.602;11.904;2022-07-10T11:43:54;5.85;;;2.45;;
59571;SDS011;59406;45.602;11.904;2022-07-10T11:46:32;3.95;;;2.25;;
59571;SDS011;59406;45.602;11.904;2022-07-10T11:49:02;3.97;;;2.00;;
59571;SDS011;59406;45.602;11.904;2022-07-10T11:51:34;3.40;;;2.25;;
59571;SDS011;59406;45.602;11.904;2022-07-10T11:54:06;3.77;;;1.80;;
59571;SDS011;59406;45.602;11.904;2022-07-10T11:56:39;4.15;;;1.55;;
59571;SDS011;59406;45.602;11.904;2022-07-10T11:59:10;4.30;;;2.10;;
59571;SDS011;59406;45.602;11.904;2022-07-10T12:01:42;4.30;;;1.60;;
59571;SDS011;59406;45.602;11.904;2022-07-10T12:04:13;3.40;;;1.63;;
59571;SDS011;59406;45.602;11.904;2022-07-10T12:06:41;4.33;;;2.20;;
59571;SDS011;59406;45.602;11.904;2022-07-10T12:09:16;5.22;;;2.03;;
59571;SDS011;59406;45.602;11.904;2022-07-10T12:11:56;3.83;;;1.60;;
59571;SDS011;59406;45.602;11.904;2022-07-10T12:14:31;3.35;;;1.60;;
59571;SDS011;59406;45.602;11.904;2022-07-10T12:16:58;3.70;;;2.20;;
59571;SDS011;59406;45.602;11.904;2022-07-10T12:19:25;3.93;;;1.93;;
59571;SDS011;59406;45.602;11.904;2022-07-10T12:22:01;4.00;;;2.60;;
59571;SDS011;59406;45.602;11.904;2022-07-10T12:24:27;3.40;;;2.28;;
59571;SDS011;59406;45.602;11.904;2022-07-10T12:26:53;4.07;;;1.80;;
59571;SDS011;59406;45.602;11.904;2022-07-10T12:29:27;4.55;;;2.63;;
59571;SDS011;59406;45.602;11.904;2022-07-10T12:31:57;3.60;;;2.10;;
59571;SDS011;59406;45.602;11.904;2022-07-10T12:34:34;4.00;;;2.35;;
59571;SDS011;59406;45.602;11.904;2022-07-10T12:37:11;4.20;;;2.88;;
59571;SDS011;59406;45.602;11.904;2022-07-10T12:39:46;5.22;;;2.40;;
59571;SDS011;59406;45.602;11.904;2022-07-10T12:42:23;4.32;;;2.67;;
59571;SDS011;59406;45.602;11.904;2022-07-10T12:44:54;3.50;;;2.20;;
59571;SDS011;59406;45.602;11.904;2022-07-10T12:47:42;3.90;;;2.60;;
59571;SDS011;59406;45.602;11.904;2022-07-10T12:50:14;6.55;;;2.75;;
59571;SDS011;59406;45.602;11.904;2022-07-10T12:52:42;4.75;;;2.40;;
59571;SDS011;59406;45.602;11.904;2022-07-10T12:55:12;5.45;;;3.05;;
59571;SDS011;59406;45.602;11.904;2022-07-10T13:00:17;3.70;;;2.67;;
59571;SDS011;59406;45.602;11.904;2022-07-10T13:02:46;4.18;;;3.10;;
59571;SDS011;59406;45.602;11.904;2022-07-10T13:05:27;3.80;;;2.97;;
59571;SDS011;59406;45.602;11.904;2022-07-10T13:08:43;3.60;;;2.72;;
59571;SDS011;59406;45.602;11.904;2022-07-10T13:10:54;4.83;;;2.67;;
59571;SDS011;59406;45.602;11.904;2022-07-10T13:13:21;4.20;;;2.20;;
59571;SDS011;59406;45.602;11.904;2022-07-10T13:15:48;3.78;;;2.55;;
59571;SDS011;59406;45.602;11.904;2022-07-10T13:18:22;3.67;;;2.65;;
59571;SDS011;59406;45.602;11.904;2022-07-10T13:20:54;4.13;;;2.85;;
59571;SDS011;59406;45.602;11.904;2022-07-10T13:23:21;4.40;;;2.90;;
59571;SDS011;59406;45.602;11.904;2022-07-10T13:25:49;4.10;;;2.65;;
59571;SDS011;59406;45.602;11.904;2022-07-10T13:28:15;4.43;;;2.90;;
59571;SDS011;59406;45.602;11.904;2022-07-10T13:30:44;4.43;;;3.10;;
59571;SDS011;59406;45.602;11.904;2022-07-10T13:33:10;4.00;;;3.10;;
59571;SDS011;59406;45.602;11.904;2022-07-10T13:35:36;3.93;;;3.03;;
59571;SDS011;59406;45.602;11.904;2022-07-10T13:38:03;4.43;;;2.97;;
59571;SDS011;59406;45.602;11.904;2022-07-10T13:40:30;4.22;;;3.15;;
59571;SDS011;59406;45.602;11.904;2022-07-10T13:42:57;4.57;;;2.70;;
59571;SDS011;59406;45.602;11.904;2022-07-10T13:45:24;4.07;;;3.20;;
59571;SDS011;59406;45.602;11.904;2022-07-10T13:47:52;3.97;;;3.33;;
59571;SDS011;59406;45.602;11.904;2022-07-10T13:50:21;3.95;;;2.78;;
59571;SDS011;59406;45.602;11.904;2022-07-10T13:52:48;6.30;;;2.80;;
59571;SDS011;59406;45.602;11.904;2022-07-10T13:55:14;5.20;;;2.42;;
59571;SDS011;59406;45.602;11.904;2022-07-10T13:57:41;3.53;;;2.38;;
59571;SDS011;59406;45.602;11.904;2022-07-10T14:00:07;4.10;;;2.30;;
59571;SDS011;59406;45.602;11.904;2022-07-10T14:02:34;4.53;;;2.47;;
59571;SDS011;59406;45.602;11.904;2022-07-10T14:05:01;3.53;;;2.00;;
59571;SDS011;59406;45.602;11.904;2022-07-10T14:07:27;3.65;;;2.10;;
59571;SDS011;59406;45.602;11.904;2022-07-10T14:09:53;3.80;;;2.37;;
59571;SDS011;59406;45.602;11.904;2022-07-10T14:12:19;3.75;;;2.80;;
59571;SDS011;59406;45.602;11.904;2022-07-10T14:14:46;3.50;;;2.10;;
59571;SDS011;59406;45.602;11.904;2022-07-10T14:17:12;4.15;;;2.20;;
59571;SDS011;59406;45.602;11.904;2022-07-10T14:19:38;3.40;;;2.23;;
59571;SDS011;59406;45.602;11.904;2022-07-10T14:22:05;4.43;;;2.38;;
59571;SDS011;59406;45.602;11.904;2022-07-10T14:24:32;4.00;;;2.10;;
59571;SDS011;59406;45.602;11.904;2022-07-10T14:26:58;4.13;;;2.10;;
59571;SDS011;59406;45.602;11.904;2022-07-10T14:29:24;3.63;;;2.15;;
59571;SDS011;59406;45.602;11.904;2022-07-10T14:31:50;3.77;;;1.97;;
59571;SDS011;59406;45.602;11.904;2022-07-10T14:34:17;6.30;;;2.10;;
59571;SDS011;59406;45.602;11.904;2022-07-10T14:36:44;5.53;;;1.98;;
59571;SDS011;59406;45.602;11.904;2022-07-10T14:39:10;12.15;;;2.22;;
59571;SDS011;59406;45.602;11.904;2022-07-10T14:41:39;5.25;;;2.15;;
59571;SDS011;59406;45.602;11.904;2022-07-10T14:44:05;6.77;;;2.30;;
59571;SDS011;59406;45.602;11.904;2022-07-10T14:46:32;6.78;;;2.08;;
59571;SDS011;59406;45.602;11.904;2022-07-10T14:48:59;5.88;;;1.73;;
59571;SDS011;59406;45.602;11.904;2022-07-10T14:51:25;5.05;;;1.90;;
59571;SDS011;59406;45.602;11.904;2022-07-10T14:53:51;5.90;;;1.40;;
59571;SDS011;59406;45.602;11.904;2022-07-10T14:56:18;4.95;;;1.73;;
59571;SDS011;59406;45.602;11.904;2022-07-10T14:58:45;5.78;;;1.90;;
59571;SDS011;59406;45.602;11.904;2022-07-10T15:01:11;4.85;;;1.60;;
59571;SDS011;59406;45.602;11.904;2022-07-10T15:03:37;3.72;;;1.40;;
59571;SDS011;59406;45.602;11.904;2022-07-10T15:06:04;4.37;;;1.40;;
59571;SDS011;59406;45.602;11.904;2022-07-10T15:08:30;3.58;;;1.45;;
59571;SDS011;59406;45.602;11.904;2022-07-10T15:10:56;5.32;;;1.80;;
59571;SDS011;59406;45.602;11.904;2022-07-10T15:13:25;5.47;;;1.65;;
59571;SDS011;59406;45.602;11.904;2022-07-10T15:15:54;3.97;;;1.30;;